sensor_id;sensor_type;location;lat;lon;timestamp;P1;durP1;ratioP1;P2;durP2;ratioP2
22713;SDS011;11524;50.846;4.326;2022-11-15T00:01:43;6.30;;;4.68;;
22713;SDS011;11524;50.846;4.326;2022-11-15T00:04:09;6.60;;;4.80;;
22713;SDS011;11524;50.846;4.326;2022-11-15T00:06:35;5.22;;;4.18;;
22713;SDS011;11524;50.846;4.326;2022-11-15T00:09:01;6.15;;;4.65;;
22713;SDS011;11524;50.846;4.326;2022-11-15T00:11:27;6.13;;;4.40;;
22713;SDS011;11524;50.846;4.326;2022-11-15T00:13:56;4.68;;;4.15;;
22713;SDS011;11524;50.846;4.326;2022-11-15T00:16:23;4.88;;;4.07;;
22713;SDS011;11524;50.846;4.326;2022-11-15T00:18:49;5.38;;;3.80;;
22713;SDS011;11524;50.846;4.326;2022-11-15T00:21:15;4.57;;;4.10;;
22713;SDS011;11524;50.846;4.326;2022-11-15T00:23:41;5.50;;;4.60;;
22713;SDS011;11524;50.846;4.326;2022-11-15T00:26:08;5.07;;;4.43;;
22713;SDS011;11524;50.846;4.326;2022-11-15T00:28:39;6.55;;;4.22;;
22713;SDS011;11524;50.846;4.326;2022-11-15T00:31:06;6.57;;;4.07;;
22713;SDS011;11524;50.846;4.326;2022-11-15T00:33:34;5.75;;;4.22;;
22713;SDS011;11524;50.846;4.326;2022-11-15T00:36:00;5.95;;;4.50;;
22713;SDS011;11524;50.846;4.326;2022-11-15T00:38:33;5.65;;;4.45;;
22713;SDS011;11524;50.846;4.326;2022-11-15T00:41:00;7.00;;;4.95;;
22713;SDS011;11524;50.846;4.326;2022-11-15T00:43:26;5.15;;;4.50;;
22713;SDS011;11524;50.846;4.326;2022-11-15T00:45:52;5.57;;;4.00;;
22713;SDS011;11524;50.846;4.326;2022-11-15T00:48:17;4.65;;;4.15;;
22713;SDS011;11524;50.846;4.326;2022-11-15T00:50:43;4.78;;;4.07;;
22713;SDS011;11524;50.846;4.326;2022-11-15T00:53:08;5.20;;;4.03;;
22713;SDS011;11524;50.846;4.326;2022-11-15T00:55:34;5.32;;;4.18;;
22713;SDS011;11524;50.846;4.326;2022-11-15T00:57:59;8.15;;;4.32;;
22713;SDS011;11524;50.846;4.326;2022-11-15T01:00:25;4.85;;;4.30;;
22713;SDS011;11524;50.846;4.326;2022-11-15T01:02:51;6.38;;;4.18;;
22713;SDS011;11524;50.846;4.326;2022-11-15T01:05:16;5.15;;;4.18;;
22713;SDS011;11524;50.846;4.326;2022-11-15T01:07:42;5.15;;;4.28;;
22713;SDS011;11524;50.846;4.326;2022-11-15T01:10:08;5.95;;;4.30;;
22713;SDS011;11524;50.846;4.326;2022-11-15T01:12:33;5.18;;;3.90;;
22713;SDS011;11524;50.846;4.326;2022-11-15T01:14:59;7.03;;;4.13;;
22713;SDS011;11524;50.846;4.326;2022-11-15T01:17:25;5.40;;;3.78;;
22713;SDS011;11524;50.846;4.326;2022-11-15T01:19:50;4.72;;;3.92;;
22713;SDS011;11524;50.846;4.326;2022-11-15T01:22:16;4.78;;;4.28;;
22713;SDS011;11524;50.846;4.326;2022-11-15T01:24:42;5.82;;;3.95;;
22713;SDS011;11524;50.846;4.326;2022-11-15T01:27:07;6.00;;;4.28;;
22713;SDS011;11524;50.846;4.326;2022-11-15T01:29:34;5.50;;;4.15;;
22713;SDS011;11524;50.846;4.326;2022-11-15T01:31:59;4.75;;;3.72;;
22713;SDS011;11524;50.846;4.326;2022-11-15T01:34:25;4.57;;;3.92;;
22713;SDS011;11524;50.846;4.326;2022-11-15T01:36:50;4.55;;;4.00;;
22713;SDS011;11524;50.846;4.326;2022-11-15T01:39:16;4.93;;;4.10;;
22713;SDS011;11524;50.846;4.326;2022-11-15T01:41:41;5.13;;;4.47;;
22713;SDS011;11524;50.846;4.326;2022-11-15T01:47:09;5.28;;;4.07;;
22713;SDS011;11524;50.846;4.326;2022-11-15T01:49:43;5.10;;;4.28;;
22713;SDS011;11524;50.846;4.326;2022-11-15T01:52:17;5.20;;;3.88;;
22713;SDS011;11524;50.846;4.326;2022-11-15T01:54:45;4.15;;;3.75;;
22713;SDS011;11524;50.846;4.326;2022-11-15T01:57:13;4.03;;;3.63;;
22713;SDS011;11524;50.846;4.326;2022-11-15T01:59:39;4.60;;;3.40;;
22713;SDS011;11524;50.846;4.326;2022-11-15T02:02:08;5.00;;;4.35;;
22713;SDS011;11524;50.846;4.326;2022-11-15T02:04:35;5.35;;;4.28;;
22713;SDS011;11524;50.846;4.326;2022-11-15T02:07:05;5.45;;;4.45;;
22713;SDS011;11524;50.846;4.326;2022-11-15T02:09:33;7.15;;;5.60;;
22713;SDS011;11524;50.846;4.326;2022-11-15T02:12:01;6.43;;;4.90;;
22713;SDS011;11524;50.846;4.326;2022-11-15T02:14:27;5.00;;;4.38;;
22713;SDS011;11524;50.846;4.326;2022-11-15T02:17:08;4.90;;;4.22;;
22713;SDS011;11524;50.846;4.326;2022-11-15T02:22:37;7.68;;;5.40;;
22713;SDS011;11524;50.846;4.326;2022-11-15T02:28:55;6.05;;;4.72;;
22713;SDS011;11524;50.846;4.326;2022-11-15T02:34:31;6.03;;;4.53;;
22713;SDS011;11524;50.846;4.326;2022-11-15T02:39:51;6.18;;;4.20;;
22713;SDS011;11524;50.846;4.326;2022-11-15T02:42:40;5.97;;;4.47;;
22713;SDS011;11524;50.846;4.326;2022-11-15T02:45:35;6.28;;;4.53;;
22713;SDS011;11524;50.846;4.326;2022-11-15T02:48:04;4.50;;;4.10;;
22713;SDS011;11524;50.846;4.326;2022-11-15T02:50:32;4.85;;;4.35;;
22713;SDS011;11524;50.846;4.326;2022-11-15T02:52:58;5.72;;;4.22;;
22713;SDS011;11524;50.846;4.326;2022-11-15T02:55:25;6.10;;;4.57;;
22713;SDS011;11524;50.846;4.326;2022-11-15T02:57:52;4.93;;;4.10;;
22713;SDS011;11524;50.846;4.326;2022-11-15T03:00:27;5.03;;;4.10;;
22713;SDS011;11524;50.846;4.326;2022-11-15T03:03:05;5.35;;;4.10;;
22713;SDS011;11524;50.846;4.326;2022-11-15T03:05:53;5.82;;;4.18;;
22713;SDS011;11524;50.846;4.326;2022-11-15T03:08:39;5.32;;;3.97;;
22713;SDS011;11524;50.846;4.326;2022-11-15T03:11:27;4.50;;;4.00;;
22713;SDS011;11524;50.846;4.326;2022-11-15T03:22:07;5.15;;;3.90;;
22713;SDS011;11524;50.846;4.326;2022-11-15T03:24:37;7.05;;;3.65;;
22713;SDS011;11524;50.846;4.326;2022-11-15T03:27:05;4.95;;;3.67;;
22713;SDS011;11524;50.846;4.326;2022-11-15T03:29:33;3.97;;;3.55;;
22713;SDS011;11524;50.846;4.326;2022-11-15T03:32:07;5.05;;;3.63;;
22713;SDS011;11524;50.846;4.326;2022-11-15T03:37:18;5.22;;;3.70;;
22713;SDS011;11524;50.846;4.326;2022-11-15T03:39:47;5.65;;;3.83;;
22713;SDS011;11524;50.846;4.326;2022-11-15T03:42:20;4.55;;;3.17;;
22713;SDS011;11524;50.846;4.326;2022-11-15T03:47:41;4.30;;;3.50;;
22713;SDS011;11524;50.846;4.326;2022-11-15T03:50:11;3.92;;;3.30;;
22713;SDS011;11524;50.846;4.326;2022-11-15T03:52:40;4.55;;;3.45;;
22713;SDS011;11524;50.846;4.326;2022-11-15T03:55:08;5.85;;;3.75;;
22713;SDS011;11524;50.846;4.326;2022-11-15T03:57:36;4.95;;;3.17;;
22713;SDS011;11524;50.846;4.326;2022-11-15T04:00:02;5.22;;;3.47;;
22713;SDS011;11524;50.846;4.326;2022-11-15T04:02:29;4.70;;;3.63;;
22713;SDS011;11524;50.846;4.326;2022-11-15T04:04:55;3.78;;;3.28;;
22713;SDS011;11524;50.846;4.326;2022-11-15T04:07:20;5.38;;;3.15;;
22713;SDS011;11524;50.846;4.326;2022-11-15T04:09:46;7.53;;;2.80;;
22713;SDS011;11524;50.846;4.326;2022-11-15T04:12:27;3.53;;;2.72;;
22713;SDS011;11524;50.846;4.326;2022-11-15T04:15:06;4.18;;;3.17;;
22713;SDS011;11524;50.846;4.326;2022-11-15T04:20:22;3.83;;;3.10;;
22713;SDS011;11524;50.846;4.326;2022-11-15T04:23:11;3.53;;;2.80;;
22713;SDS011;11524;50.846;4.326;2022-11-15T04:25:58;3.90;;;2.83;;
22713;SDS011;11524;50.846;4.326;2022-11-15T04:28:25;4.78;;;2.83;;
22713;SDS011;11524;50.846;4.326;2022-11-15T04:30:51;3.40;;;2.95;;
22713;SDS011;11524;50.846;4.326;2022-11-15T04:33:17;4.18;;;3.08;;
22713;SDS011;11524;50.846;4.326;2022-11-15T04:35:42;4.88;;;3.10;;
22713;SDS011;11524;50.846;4.326;2022-11-15T04:38:09;3.70;;;2.70;;
22713;SDS011;11524;50.846;4.326;2022-11-15T04:40:36;5.03;;;2.95;;
22713;SDS011;11524;50.846;4.326;2022-11-15T04:43:02;5.20;;;2.80;;
22713;SDS011;11524;50.846;4.326;2022-11-15T04:45:28;4.40;;;2.63;;
22713;SDS011;11524;50.846;4.326;2022-11-15T04:47:54;4.15;;;2.72;;
22713;SDS011;11524;50.846;4.326;2022-11-15T04:50:20;3.38;;;2.65;;
22713;SDS011;11524;50.846;4.326;2022-11-15T04:52:52;3.20;;;2.53;;
22713;SDS011;11524;50.846;4.326;2022-11-15T04:55:19;5.30;;;2.67;;
22713;SDS011;11524;50.846;4.326;2022-11-15T04:57:45;4.53;;;2.80;;
22713;SDS011;11524;50.846;4.326;2022-11-15T05:00:12;3.63;;;2.63;;
22713;SDS011;11524;50.846;4.326;2022-11-15T05:02:40;4.07;;;2.30;;
22713;SDS011;11524;50.846;4.326;2022-11-15T05:05:24;3.75;;;2.58;;
22713;SDS011;11524;50.846;4.326;2022-11-15T05:07:50;5.38;;;2.97;;
22713;SDS011;11524;50.846;4.326;2022-11-15T05:10:16;2.95;;;2.40;;
22713;SDS011;11524;50.846;4.326;2022-11-15T05:12:41;2.92;;;2.47;;
22713;SDS011;11524;50.846;4.326;2022-11-15T05:15:07;4.15;;;2.70;;
22713;SDS011;11524;50.846;4.326;2022-11-15T05:17:33;4.15;;;2.75;;
22713;SDS011;11524;50.846;4.326;2022-11-15T05:19:59;3.08;;;2.45;;
22713;SDS011;11524;50.846;4.326;2022-11-15T05:22:25;4.50;;;2.60;;
22713;SDS011;11524;50.846;4.326;2022-11-15T05:24:51;3.50;;;2.45;;
22713;SDS011;11524;50.846;4.326;2022-11-15T05:27:17;3.33;;;2.40;;
22713;SDS011;11524;50.846;4.326;2022-11-15T05:29:42;2.78;;;2.15;;
22713;SDS011;11524;50.846;4.326;2022-11-15T05:32:08;4.50;;;2.95;;
22713;SDS011;11524;50.846;4.326;2022-11-15T05:34:35;3.47;;;2.42;;
22713;SDS011;11524;50.846;4.326;2022-11-15T05:37:00;2.78;;;2.10;;
22713;SDS011;11524;50.846;4.326;2022-11-15T05:39:26;2.95;;;2.35;;
22713;SDS011;11524;50.846;4.326;2022-11-15T05:41:52;3.50;;;2.42;;
22713;SDS011;11524;50.846;4.326;2022-11-15T05:44:22;4.60;;;2.42;;
22713;SDS011;11524;50.846;4.326;2022-11-15T05:46:49;5.30;;;2.00;;
22713;SDS011;11524;50.846;4.326;2022-11-15T05:49:18;3.65;;;2.28;;
22713;SDS011;11524;50.846;4.326;2022-11-15T05:51:47;3.45;;;2.30;;
22713;SDS011;11524;50.846;4.326;2022-11-15T05:54:15;3.00;;;2.03;;
22713;SDS011;11524;50.846;4.326;2022-11-15T05:56:42;3.15;;;1.92;;
22713;SDS011;11524;50.846;4.326;2022-11-15T05:59:08;3.97;;;2.13;;
22713;SDS011;11524;50.846;4.326;2022-11-15T06:01:35;2.70;;;1.90;;
22713;SDS011;11524;50.846;4.326;2022-11-15T06:04:01;3.83;;;2.20;;
22713;SDS011;11524;50.846;4.326;2022-11-15T06:06:27;5.22;;;2.20;;
22713;SDS011;11524;50.846;4.326;2022-11-15T06:08:53;6.28;;;2.15;;
22713;SDS011;11524;50.846;4.326;2022-11-15T06:11:19;3.38;;;1.73;;
22713;SDS011;11524;50.846;4.326;2022-11-15T06:13:44;3.25;;;1.90;;
22713;SDS011;11524;50.846;4.326;2022-11-15T06:16:10;3.03;;;1.90;;
22713;SDS011;11524;50.846;4.326;2022-11-15T06:18:36;4.88;;;2.28;;
22713;SDS011;11524;50.846;4.326;2022-11-15T06:21:02;2.20;;;1.75;;
22713;SDS011;11524;50.846;4.326;2022-11-15T06:23:30;2.88;;;2.30;;
22713;SDS011;11524;50.846;4.326;2022-11-15T06:25:57;5.45;;;2.40;;
22713;SDS011;11524;50.846;4.326;2022-11-15T06:28:24;4.60;;;2.00;;
22713;SDS011;11524;50.846;4.326;2022-11-15T06:30:52;6.72;;;2.28;;
22713;SDS011;11524;50.846;4.326;2022-11-15T06:33:18;8.95;;;2.08;;
22713;SDS011;11524;50.846;4.326;2022-11-15T06:35:43;3.72;;;1.70;;
22713;SDS011;11524;50.846;4.326;2022-11-15T06:38:09;2.13;;;1.55;;
22713;SDS011;11524;50.846;4.326;2022-11-15T06:40:36;3.00;;;1.70;;
22713;SDS011;11524;50.846;4.326;2022-11-15T06:43:03;3.50;;;2.20;;
22713;SDS011;11524;50.846;4.326;2022-11-15T06:45:29;3.50;;;2.08;;
22713;SDS011;11524;50.846;4.326;2022-11-15T06:47:55;5.55;;;2.33;;
22713;SDS011;11524;50.846;4.326;2022-11-15T06:50:21;4.82;;;2.30;;
22713;SDS011;11524;50.846;4.326;2022-11-15T06:52:46;7.25;;;2.10;;
22713;SDS011;11524;50.846;4.326;2022-11-15T06:55:12;4.50;;;2.03;;
22713;SDS011;11524;50.846;4.326;2022-11-15T06:57:42;4.05;;;1.75;;
22713;SDS011;11524;50.846;4.326;2022-11-15T07:00:15;3.95;;;2.00;;
22713;SDS011;11524;50.846;4.326;2022-11-15T07:02:42;3.08;;;2.15;;
22713;SDS011;11524;50.846;4.326;2022-11-15T07:05:07;3.88;;;2.10;;
22713;SDS011;11524;50.846;4.326;2022-11-15T07:07:33;4.97;;;2.03;;
22713;SDS011;11524;50.846;4.326;2022-11-15T07:09:59;3.33;;;1.75;;
22713;SDS011;11524;50.846;4.326;2022-11-15T07:12:24;3.58;;;2.20;;
22713;SDS011;11524;50.846;4.326;2022-11-15T07:14:50;5.15;;;2.10;;
22713;SDS011;11524;50.846;4.326;2022-11-15T07:17:15;4.43;;;1.98;;
22713;SDS011;11524;50.846;4.326;2022-11-15T07:19:41;4.65;;;1.80;;
22713;SDS011;11524;50.846;4.326;2022-11-15T07:22:06;3.78;;;1.80;;
22713;SDS011;11524;50.846;4.326;2022-11-15T07:24:32;5.20;;;1.73;;
22713;SDS011;11524;50.846;4.326;2022-11-15T07:26:57;6.22;;;2.08;;
22713;SDS011;11524;50.846;4.326;2022-11-15T07:29:23;5.47;;;1.70;;
22713;SDS011;11524;50.846;4.326;2022-11-15T07:31:49;6.00;;;2.00;;
22713;SDS011;11524;50.846;4.326;2022-11-15T07:34:15;4.63;;;2.20;;
22713;SDS011;11524;50.846;4.326;2022-11-15T07:36:41;3.47;;;1.77;;
22713;SDS011;11524;50.846;4.326;2022-11-15T07:39:06;5.55;;;2.05;;
22713;SDS011;11524;50.846;4.326;2022-11-15T07:41:32;6.68;;;2.45;;
22713;SDS011;11524;50.846;4.326;2022-11-15T07:43:58;7.88;;;2.28;;
22713;SDS011;11524;50.846;4.326;2022-11-15T07:46:23;7.32;;;2.38;;
22713;SDS011;11524;50.846;4.326;2022-11-15T07:48:49;7.60;;;2.70;;
22713;SDS011;11524;50.846;4.326;2022-11-15T07:51:15;10.52;;;3.00;;
22713;SDS011;11524;50.846;4.326;2022-11-15T07:53:42;5.45;;;2.53;;
22713;SDS011;11524;50.846;4.326;2022-11-15T07:56:08;5.82;;;2.10;;
22713;SDS011;11524;50.846;4.326;2022-11-15T07:58:35;4.40;;;2.17;;
22713;SDS011;11524;50.846;4.326;2022-11-15T08:01:04;3.28;;;1.90;;
22713;SDS011;11524;50.846;4.326;2022-11-15T08:03:31;4.15;;;1.88;;
22713;SDS011;11524;50.846;4.326;2022-11-15T08:05:57;3.97;;;2.00;;
22713;SDS011;11524;50.846;4.326;2022-11-15T08:08:22;3.00;;;1.80;;
22713;SDS011;11524;50.846;4.326;2022-11-15T08:10:48;3.67;;;1.90;;
22713;SDS011;11524;50.846;4.326;2022-11-15T08:13:14;4.70;;;1.88;;
22713;SDS011;11524;50.846;4.326;2022-11-15T08:15:40;3.83;;;1.70;;
22713;SDS011;11524;50.846;4.326;2022-11-15T08:18:06;2.97;;;1.80;;
22713;SDS011;11524;50.846;4.326;2022-11-15T08:20:39;3.47;;;1.55;;
22713;SDS011;11524;50.846;4.326;2022-11-15T08:23:05;6.63;;;1.90;;
22713;SDS011;11524;50.846;4.326;2022-11-15T08:25:32;2.78;;;1.40;;
22713;SDS011;11524;50.846;4.326;2022-11-15T08:27:59;2.13;;;1.40;;
22713;SDS011;11524;50.846;4.326;2022-11-15T08:30:27;4.28;;;1.80;;
22713;SDS011;11524;50.846;4.326;2022-11-15T08:32:54;5.93;;;1.60;;
22713;SDS011;11524;50.846;4.326;2022-11-15T08:35:22;3.03;;;1.50;;
22713;SDS011;11524;50.846;4.326;2022-11-15T08:37:48;4.25;;;1.60;;
22713;SDS011;11524;50.846;4.326;2022-11-15T08:40:14;4.63;;;1.63;;
22713;SDS011;11524;50.846;4.326;2022-11-15T08:42:40;3.35;;;1.40;;
22713;SDS011;11524;50.846;4.326;2022-11-15T08:45:06;3.85;;;1.48;;
22713;SDS011;11524;50.846;4.326;2022-11-15T08:47:33;2.88;;;1.20;;
22713;SDS011;11524;50.846;4.326;2022-11-15T08:49:59;3.80;;;1.63;;
22713;SDS011;11524;50.846;4.326;2022-11-15T08:52:25;4.95;;;1.27;;
22713;SDS011;11524;50.846;4.326;2022-11-15T08:54:50;2.63;;;1.58;;
22713;SDS011;11524;50.846;4.326;2022-11-15T08:57:16;3.17;;;1.10;;
22713;SDS011;11524;50.846;4.326;2022-11-15T08:59:42;5.50;;;1.52;;
22713;SDS011;11524;50.846;4.326;2022-11-15T09:02:14;4.20;;;1.50;;
22713;SDS011;11524;50.846;4.326;2022-11-15T09:04:40;5.80;;;1.40;;
22713;SDS011;11524;50.846;4.326;2022-11-15T09:07:07;4.30;;;1.75;;
22713;SDS011;11524;50.846;4.326;2022-11-15T09:09:33;7.13;;;1.70;;
22713;SDS011;11524;50.846;4.326;2022-11-15T09:11:59;8.05;;;1.52;;
22713;SDS011;11524;50.846;4.326;2022-11-15T09:14:24;6.40;;;1.58;;
22713;SDS011;11524;50.846;4.326;2022-11-15T09:16:50;9.48;;;1.98;;
22713;SDS011;11524;50.846;4.326;2022-11-15T09:19:15;4.32;;;1.60;;
22713;SDS011;11524;50.846;4.326;2022-11-15T09:21:41;6.28;;;1.65;;
22713;SDS011;11524;50.846;4.326;2022-11-15T09:24:07;7.20;;;1.90;;
22713;SDS011;11524;50.846;4.326;2022-11-15T09:26:33;2.65;;;1.60;;
22713;SDS011;11524;50.846;4.326;2022-11-15T09:28:59;4.35;;;1.70;;
22713;SDS011;11524;50.846;4.326;2022-11-15T09:31:26;4.30;;;1.42;;
22713;SDS011;11524;50.846;4.326;2022-11-15T09:33:51;4.70;;;1.30;;
22713;SDS011;11524;50.846;4.326;2022-11-15T09:36:17;4.03;;;1.58;;
22713;SDS011;11524;50.846;4.326;2022-11-15T09:38:43;3.17;;;1.42;;
22713;SDS011;11524;50.846;4.326;2022-11-15T09:46:34;3.72;;;1.20;;
22713;SDS011;11524;50.846;4.326;2022-11-15T09:49:10;2.35;;;1.35;;
22713;SDS011;11524;50.846;4.326;2022-11-15T09:51:39;3.22;;;1.45;;
22713;SDS011;11524;50.846;4.326;2022-11-15T09:57:06;3.58;;;1.30;;
22713;SDS011;11524;50.846;4.326;2022-11-15T10:02:46;5.32;;;1.25;;
22713;SDS011;11524;50.846;4.326;2022-11-15T10:05:18;3.50;;;1.35;;
22713;SDS011;11524;50.846;4.326;2022-11-15T10:10:37;3.15;;;1.20;;
22713;SDS011;11524;50.846;4.326;2022-11-15T10:13:07;4.38;;;1.25;;
22713;SDS011;11524;50.846;4.326;2022-11-15T10:15:42;3.30;;;1.00;;
22713;SDS011;11524;50.846;4.326;2022-11-15T10:18:14;2.60;;;1.00;;
22713;SDS011;11524;50.846;4.326;2022-11-15T10:21:02;4.15;;;1.10;;
22713;SDS011;11524;50.846;4.326;2022-11-15T10:23:40;3.85;;;1.10;;
22713;SDS011;11524;50.846;4.326;2022-11-15T10:26:07;2.72;;;1.27;;
22713;SDS011;11524;50.846;4.326;2022-11-15T10:28:36;4.30;;;1.30;;
22713;SDS011;11524;50.846;4.326;2022-11-15T10:31:02;4.22;;;1.15;;
22713;SDS011;11524;50.846;4.326;2022-11-15T10:33:38;3.67;;;1.20;;
22713;SDS011;11524;50.846;4.326;2022-11-15T10:41:19;4.55;;;1.13;;
22713;SDS011;11524;50.846;4.326;2022-11-15T10:46:41;1.98;;;1.00;;
22713;SDS011;11524;50.846;4.326;2022-11-15T10:51:42;2.70;;;1.23;;
22713;SDS011;11524;50.846;4.326;2022-11-15T10:54:20;3.45;;;1.10;;
22713;SDS011;11524;50.846;4.326;2022-11-15T10:56:57;2.03;;;1.00;;
22713;SDS011;11524;50.846;4.326;2022-11-15T10:59:26;2.53;;;1.20;;
22713;SDS011;11524;50.846;4.326;2022-11-15T11:01:54;2.58;;;1.10;;
22713;SDS011;11524;50.846;4.326;2022-11-15T11:04:20;3.78;;;1.30;;
22713;SDS011;11524;50.846;4.326;2022-11-15T11:06:50;5.05;;;1.30;;
22713;SDS011;11524;50.846;4.326;2022-11-15T11:09:22;2.53;;;1.15;;
22713;SDS011;11524;50.846;4.326;2022-11-15T11:11:54;2.92;;;1.20;;
22713;SDS011;11524;50.846;4.326;2022-11-15T11:14:24;2.20;;;1.20;;
22713;SDS011;11524;50.846;4.326;2022-11-15T11:16:53;2.90;;;1.08;;
22713;SDS011;11524;50.846;4.326;2022-11-15T11:22:26;1.98;;;1.00;;
22713;SDS011;11524;50.846;4.326;2022-11-15T11:39:21;1.58;;;0.90;;
22713;SDS011;11524;50.846;4.326;2022-11-15T11:42:12;3.22;;;1.00;;
22713;SDS011;11524;50.846;4.326;2022-11-15T11:44:53;4.85;;;1.30;;
22713;SDS011;11524;50.846;4.326;2022-11-15T11:47:31;1.45;;;0.80;;
22713;SDS011;11524;50.846;4.326;2022-11-15T11:50:02;3.70;;;1.17;;
22713;SDS011;11524;50.846;4.326;2022-11-15T11:52:39;2.75;;;1.00;;
22713;SDS011;11524;50.846;4.326;2022-11-15T12:00:55;3.97;;;1.08;;
22713;SDS011;11524;50.846;4.326;2022-11-15T12:03:40;3.67;;;1.20;;
22713;SDS011;11524;50.846;4.326;2022-11-15T12:06:19;4.75;;;1.05;;
22713;SDS011;11524;50.846;4.326;2022-11-15T12:08:48;4.50;;;1.20;;
22713;SDS011;11524;50.846;4.326;2022-11-15T12:14:24;2.50;;;1.10;;
22713;SDS011;11524;50.846;4.326;2022-11-15T12:17:12;4.10;;;1.10;;
22713;SDS011;11524;50.846;4.326;2022-11-15T12:19:39;1.52;;;0.93;;
22713;SDS011;11524;50.846;4.326;2022-11-15T12:22:24;3.08;;;1.10;;
22713;SDS011;11524;50.846;4.326;2022-11-15T12:24:56;4.00;;;1.10;;
22713;SDS011;11524;50.846;4.326;2022-11-15T12:30:00;3.97;;;1.20;;
22713;SDS011;11524;50.846;4.326;2022-11-15T12:32:36;3.40;;;1.27;;
22713;SDS011;11524;50.846;4.326;2022-11-15T12:35:04;3.58;;;1.45;;
22713;SDS011;11524;50.846;4.326;2022-11-15T12:37:46;3.92;;;1.48;;
22713;SDS011;11524;50.846;4.326;2022-11-15T12:40:21;3.63;;;1.80;;
22713;SDS011;11524;50.846;4.326;2022-11-15T12:45:32;2.33;;;1.20;;
22713;SDS011;11524;50.846;4.326;2022-11-15T12:56:17;4.57;;;1.42;;
22713;SDS011;11524;50.846;4.326;2022-11-15T13:06:50;2.50;;;1.20;;
22713;SDS011;11524;50.846;4.326;2022-11-15T13:22:42;2.55;;;1.05;;
22713;SDS011;11524;50.846;4.326;2022-11-15T13:27:44;3.42;;;0.95;;
22713;SDS011;11524;50.846;4.326;2022-11-15T13:30:16;3.53;;;1.10;;
22713;SDS011;11524;50.846;4.326;2022-11-15T13:32:46;2.67;;;1.02;;
22713;SDS011;11524;50.846;4.326;2022-11-15T13:35:23;2.00;;;1.00;;
22713;SDS011;11524;50.846;4.326;2022-11-15T13:37:53;3.63;;;1.20;;
22713;SDS011;11524;50.846;4.326;2022-11-15T13:42:55;1.83;;;0.85;;
22713;SDS011;11524;50.846;4.326;2022-11-15T13:45:22;2.22;;;0.88;;
22713;SDS011;11524;50.846;4.326;2022-11-15T13:47:55;3.53;;;1.08;;
22713;SDS011;11524;50.846;4.326;2022-11-15T13:50:24;1.67;;;0.90;;
22713;SDS011;11524;50.846;4.326;2022-11-15T13:52:52;2.83;;;1.17;;
22713;SDS011;11524;50.846;4.326;2022-11-15T13:55:22;3.10;;;1.13;;
22713;SDS011;11524;50.846;4.326;2022-11-15T13:57:59;2.35;;;0.98;;
22713;SDS011;11524;50.846;4.326;2022-11-15T14:00:40;3.80;;;0.90;;
22713;SDS011;11524;50.846;4.326;2022-11-15T14:08:31;3.30;;;1.30;;
22713;SDS011;11524;50.846;4.326;2022-11-15T14:11:09;1.55;;;1.10;;
22713;SDS011;11524;50.846;4.326;2022-11-15T14:13:42;1.73;;;1.00;;
22713;SDS011;11524;50.846;4.326;2022-11-15T14:16:23;2.55;;;1.10;;
22713;SDS011;11524;50.846;4.326;2022-11-15T14:18:58;3.58;;;1.20;;
22713;SDS011;11524;50.846;4.326;2022-11-15T14:21:24;2.88;;;1.10;;
22713;SDS011;11524;50.846;4.326;2022-11-15T14:23:50;2.95;;;1.00;;
22713;SDS011;11524;50.846;4.326;2022-11-15T14:26:29;3.58;;;1.15;;
22713;SDS011;11524;50.846;4.326;2022-11-15T14:28:57;3.35;;;1.08;;
22713;SDS011;11524;50.846;4.326;2022-11-15T14:31:50;3.08;;;1.23;;
22713;SDS011;11524;50.846;4.326;2022-11-15T14:34:16;2.63;;;1.10;;
22713;SDS011;11524;50.846;4.326;2022-11-15T14:36:42;7.45;;;1.33;;
22713;SDS011;11524;50.846;4.326;2022-11-15T14:39:07;3.95;;;1.30;;
22713;SDS011;11524;50.846;4.326;2022-11-15T14:41:36;3.85;;;1.20;;
22713;SDS011;11524;50.846;4.326;2022-11-15T14:44:05;3.22;;;1.30;;
22713;SDS011;11524;50.846;4.326;2022-11-15T14:46:31;4.10;;;1.50;;
22713;SDS011;11524;50.846;4.326;2022-11-15T14:48:57;5.03;;;1.20;;
22713;SDS011;11524;50.846;4.326;2022-11-15T14:51:23;8.75;;;1.30;;
22713;SDS011;11524;50.846;4.326;2022-11-15T14:53:49;2.42;;;1.10;;
22713;SDS011;11524;50.846;4.326;2022-11-15T14:56:14;5.68;;;1.50;;
22713;SDS011;11524;50.846;4.326;2022-11-15T14:58:41;3.67;;;1.30;;
22713;SDS011;11524;50.846;4.326;2022-11-15T15:01:12;9.82;;;1.50;;
22713;SDS011;11524;50.846;4.326;2022-11-15T15:03:41;2.40;;;1.27;;
22713;SDS011;11524;50.846;4.326;2022-11-15T15:06:09;2.70;;;1.40;;
22713;SDS011;11524;50.846;4.326;2022-11-15T15:08:34;4.03;;;1.45;;
22713;SDS011;11524;50.846;4.326;2022-11-15T15:11:00;4.55;;;1.33;;
22713;SDS011;11524;50.846;4.326;2022-11-15T15:13:25;4.45;;;1.20;;
22713;SDS011;11524;50.846;4.326;2022-11-15T15:15:53;3.83;;;1.70;;
22713;SDS011;11524;50.846;4.326;2022-11-15T15:18:19;3.95;;;1.70;;
22713;SDS011;11524;50.846;4.326;2022-11-15T15:20:45;2.30;;;1.23;;
22713;SDS011;11524;50.846;4.326;2022-11-15T15:23:18;2.83;;;1.60;;
22713;SDS011;11524;50.846;4.326;2022-11-15T15:25:45;6.53;;;1.38;;
22713;SDS011;11524;50.846;4.326;2022-11-15T15:28:13;4.32;;;1.52;;
22713;SDS011;11524;50.846;4.326;2022-11-15T15:30:39;3.83;;;1.60;;
22713;SDS011;11524;50.846;4.326;2022-11-15T15:33:05;3.78;;;1.52;;
22713;SDS011;11524;50.846;4.326;2022-11-15T15:35:31;5.88;;;1.92;;
22713;SDS011;11524;50.846;4.326;2022-11-15T15:37:58;3.30;;;1.60;;
22713;SDS011;11524;50.846;4.326;2022-11-15T15:40:25;6.90;;;2.05;;
22713;SDS011;11524;50.846;4.326;2022-11-15T15:42:52;3.33;;;1.63;;
22713;SDS011;11524;50.846;4.326;2022-11-15T15:45:18;4.13;;;1.80;;
22713;SDS011;11524;50.846;4.326;2022-11-15T15:47:44;5.30;;;1.60;;
22713;SDS011;11524;50.846;4.326;2022-11-15T15:50:16;3.75;;;2.10;;
22713;SDS011;11524;50.846;4.326;2022-11-15T15:52:47;3.20;;;1.60;;
22713;SDS011;11524;50.846;4.326;2022-11-15T15:55:14;5.25;;;1.60;;
22713;SDS011;11524;50.846;4.326;2022-11-15T15:57:39;4.20;;;1.65;;
22713;SDS011;11524;50.846;4.326;2022-11-15T16:00:05;3.63;;;1.60;;
22713;SDS011;11524;50.846;4.326;2022-11-15T16:02:31;2.58;;;1.25;;
22713;SDS011;11524;50.846;4.326;2022-11-15T16:04:59;2.97;;;1.40;;
22713;SDS011;11524;50.846;4.326;2022-11-15T16:07:25;3.25;;;1.20;;
22713;SDS011;11524;50.846;4.326;2022-11-15T16:09:50;2.47;;;1.50;;
22713;SDS011;11524;50.846;4.326;2022-11-15T16:12:25;2.78;;;1.45;;
22713;SDS011;11524;50.846;4.326;2022-11-15T16:14:58;4.20;;;1.40;;
22713;SDS011;11524;50.846;4.326;2022-11-15T16:17:27;4.80;;;1.55;;
22713;SDS011;11524;50.846;4.326;2022-11-15T16:19:57;5.68;;;1.70;;
22713;SDS011;11524;50.846;4.326;2022-11-15T16:22:22;5.45;;;1.80;;
22713;SDS011;11524;50.846;4.326;2022-11-15T16:24:48;6.28;;;2.05;;
22713;SDS011;11524;50.846;4.326;2022-11-15T16:27:18;2.85;;;1.58;;
22713;SDS011;11524;50.846;4.326;2022-11-15T16:29:45;4.25;;;1.90;;
22713;SDS011;11524;50.846;4.326;2022-11-15T16:32:11;5.95;;;2.30;;
22713;SDS011;11524;50.846;4.326;2022-11-15T16:34:37;3.13;;;1.92;;
22713;SDS011;11524;50.846;4.326;2022-11-15T16:37:03;5.50;;;2.40;;
22713;SDS011;11524;50.846;4.326;2022-11-15T16:39:30;4.90;;;2.40;;
22713;SDS011;11524;50.846;4.326;2022-11-15T16:41:56;5.38;;;2.25;;
22713;SDS011;11524;50.846;4.326;2022-11-15T16:44:22;2.85;;;2.10;;
22713;SDS011;11524;50.846;4.326;2022-11-15T16:46:49;6.18;;;2.50;;
22713;SDS011;11524;50.846;4.326;2022-11-15T16:49:16;4.57;;;2.53;;
22713;SDS011;11524;50.846;4.326;2022-11-15T16:51:49;5.57;;;2.28;;
22713;SDS011;11524;50.846;4.326;2022-11-15T16:54:26;5.68;;;2.63;;
22713;SDS011;11524;50.846;4.326;2022-11-15T16:56:51;4.65;;;2.20;;
22713;SDS011;11524;50.846;4.326;2022-11-15T16:59:26;5.70;;;2.20;;
22713;SDS011;11524;50.846;4.326;2022-11-15T17:01:57;5.20;;;2.42;;
22713;SDS011;11524;50.846;4.326;2022-11-15T17:04:26;7.93;;;2.60;;
22713;SDS011;11524;50.846;4.326;2022-11-15T17:06:56;7.63;;;2.33;;